PWSweather.com
Personal Weather Stations
Station Observations
NORTHPOLE1
Tombur Subdivision, North Pole, AK 99705

Tombur SubdivisionNorth Pole, AK 99705

Lat: 64.774039, Lon: -147.284862

Elevation: 434

Station Type: Davis Vantage Pro 2

http://kl7ac.com

Latest ConditionsUpdated 7:25:00 AM AKST Thursday, May 26, 2016
Currently Today's Max Today's Min Today's Average
Temperature 45.6°F7.6°C 46.4°F8.0°C 44.6°F7.0°C 45.2°F7.3°C
Dew Point 44.5°F6.9°C 44.5°F6.9°C 43.5°F6.4°C 43.8°F6.6°C
Winds 3.0 mph SW4.8 kmh SW 4.0 mph WSW6.4 kmh WSW - 2.4 mph 3.9 kmh
Wind Gusts 7.0 mph11.3 kmh 13.0 mph20.9 kmh - -
Humidity 96% 96% 91% 95%
Pressure 30.21 in1023.0 mb 30.21 in1023.0 mb 30.15 in1021.0 mb -
Precipitation - 0.09 in2.3 mm - -
Hour Temp Dew Point Humidity Winds Wind Gusts Pressure Precip Precip Rate Daily Precip Total
07:25 AM 45.6°F7.6°C 44.5°F6.9°C 96% 3.0 mph SW4.8 kmh SW 7.0 mph11.3 kmh 30.21 in1023.0 mb 0.01 in0.3 mm 0.00 in0.0 mm 0.09 in2.3 mm
07:20 AM 45.5°F7.5°C 44.4°F6.9°C 96% 2.0 mph SW3.2 kmh SW 9.0 mph14.5 kmh 30.21 in1023.0 mb 0.01 in0.3 mm 0.00 in0.0 mm 0.09 in2.3 mm
07:15 AM 45.5°F7.5°C 44.4°F6.9°C 96% 2.0 mph SW3.2 kmh SW 9.0 mph14.5 kmh 30.21 in1023.0 mb 0.01 in0.3 mm 0.00 in0.0 mm 0.09 in2.3 mm
07:10 AM 45.4°F7.4°C 44.3°F6.8°C 96% 1.0 mph SW1.6 kmh SW 6.0 mph9.7 kmh 30.21 in1023.0 mb 0.01 in0.3 mm 0.00 in0.0 mm 0.09 in2.3 mm
07:05 AM 45.4°F7.4°C 44.3°F6.8°C 96% Calm Calm 4.0 mph6.4 kmh 30.21 in1023.0 mb 0.01 in0.3 mm 0.00 in0.0 mm 0.09 in2.3 mm
07:00 AM 45.3°F7.4°C 44.2°F6.8°C 96% 1.0 mph WSW1.6 kmh WSW 6.0 mph9.7 kmh 30.21 in1023.0 mb 0.02 in0.5 mm 0.00 in0.0 mm 0.09 in2.3 mm
06:55 AM 45.3°F7.4°C 44.2°F6.8°C 96% 2.0 mph WSW3.2 kmh WSW 6.0 mph9.7 kmh 30.21 in1023.0 mb 0.02 in0.5 mm 0.00 in0.0 mm 0.09 in2.3 mm
06:50 AM 45.2°F7.3°C 44.1°F6.7°C 96% 2.0 mph WSW3.2 kmh WSW 6.0 mph9.7 kmh 30.21 in1023.0 mb 0.02 in0.5 mm 0.00 in0.0 mm 0.09 in2.3 mm
06:45 AM 45.0°F7.2°C 43.9°F6.6°C 96% 2.0 mph WSW3.2 kmh WSW 7.0 mph11.3 kmh 30.21 in1023.0 mb 0.02 in0.5 mm 0.00 in0.0 mm 0.09 in2.3 mm
06:40 AM 45.0°F7.2°C 43.9°F6.6°C 96% 2.0 mph WSW3.2 kmh WSW 7.0 mph11.3 kmh 30.21 in1023.0 mb 0.02 in0.5 mm 0.00 in0.0 mm 0.09 in2.3 mm
06:35 AM 45.0°F7.2°C 43.9°F6.6°C 96% 1.0 mph SW1.6 kmh SW 5.0 mph8.0 kmh 30.21 in1023.0 mb 0.02 in0.5 mm 0.12 in3.0 mm 0.09 in2.3 mm
06:30 AM 45.0°F7.2°C 43.9°F6.6°C 96% 2.0 mph SW3.2 kmh SW 6.0 mph9.7 kmh 30.21 in1023.0 mb 0.01 in0.3 mm 0.00 in0.0 mm 0.08 in2.0 mm
06:25 AM 45.0°F7.2°C 43.9°F6.6°C 96% 2.0 mph WSW3.2 kmh WSW 10.0 mph16.1 kmh 30.21 in1023.0 mb 0.02 in0.5 mm 0.00 in0.0 mm 0.08 in2.0 mm
06:20 AM 45.0°F7.2°C 43.9°F6.6°C 96% 2.0 mph WSW3.2 kmh WSW 10.0 mph16.1 kmh 30.20 in1022.7 mb 0.02 in0.5 mm 0.00 in0.0 mm 0.08 in2.0 mm
06:15 AM 45.0°F7.2°C 43.9°F6.6°C 96% 2.0 mph WSW3.2 kmh WSW 10.0 mph16.1 kmh 30.20 in1022.7 mb 0.02 in0.5 mm 0.00 in0.0 mm 0.08 in2.0 mm
06:10 AM 45.0°F7.2°C 43.9°F6.6°C 96% 2.0 mph SW3.2 kmh SW 10.0 mph16.1 kmh 30.20 in1022.7 mb 0.02 in0.5 mm 0.12 in3.0 mm 0.08 in2.0 mm
06:05 AM 44.9°F7.2°C 43.8°F6.6°C 96% 1.0 mph WSW1.6 kmh WSW 5.0 mph8.0 kmh 30.20 in1022.7 mb 0.01 in0.3 mm 0.00 in0.0 mm 0.07 in1.8 mm
06:00 AM 44.9°F7.2°C 43.8°F6.6°C 96% 1.0 mph SW1.6 kmh SW 6.0 mph9.7 kmh 30.20 in1022.7 mb 0.01 in0.3 mm 0.00 in0.0 mm 0.07 in1.8 mm
05:55 AM 44.8°F7.1°C 43.7°F6.5°C 96% 2.0 mph SW3.2 kmh SW 7.0 mph11.3 kmh 30.20 in1022.7 mb 0.01 in0.3 mm 0.00 in0.0 mm 0.07 in1.8 mm
05:50 AM 44.8°F7.1°C 43.7°F6.5°C 96% 2.0 mph WSW3.2 kmh WSW 7.0 mph11.3 kmh 30.20 in1022.7 mb 0.01 in0.3 mm 0.00 in0.0 mm 0.07 in1.8 mm
05:45 AM 44.8°F7.1°C 43.7°F6.5°C 96% 2.0 mph WSW3.2 kmh WSW 7.0 mph11.3 kmh 30.20 in1022.7 mb 0.01 in0.3 mm 0.00 in0.0 mm 0.07 in1.8 mm
05:40 AM 44.7°F7.1°C 43.6°F6.4°C 96% 2.0 mph WSW3.2 kmh WSW 7.0 mph11.3 kmh 30.20 in1022.7 mb 0.02 in0.5 mm 0.00 in0.0 mm 0.07 in1.8 mm
05:35 AM 44.7°F7.1°C 43.6°F6.4°C 96% 2.0 mph WSW3.2 kmh WSW 7.0 mph11.3 kmh 30.20 in1022.7 mb 0.02 in0.5 mm 0.00 in0.0 mm 0.07 in1.8 mm
05:30 AM 44.7°F7.1°C 43.6°F6.4°C 96% 3.0 mph WSW4.8 kmh WSW 9.0 mph14.5 kmh 30.20 in1022.7 mb 0.02 in0.5 mm 0.12 in3.0 mm 0.07 in1.8 mm
05:25 AM 44.7°F7.1°C 43.6°F6.4°C 96% 3.0 mph WSW4.8 kmh WSW 9.0 mph14.5 kmh 30.20 in1022.7 mb 0.01 in0.3 mm 0.00 in0.0 mm 0.06 in1.5 mm
05:20 AM 44.6°F7.0°C 43.5°F6.4°C 96% 2.0 mph WSW3.2 kmh WSW 10.0 mph16.1 kmh 30.20 in1022.7 mb 0.01 in0.3 mm 0.00 in0.0 mm 0.06 in1.5 mm
05:15 AM 44.6°F7.0°C 43.5°F6.4°C 96% 3.0 mph WSW4.8 kmh WSW 10.0 mph16.1 kmh 30.19 in1022.4 mb 0.01 in0.3 mm 0.00 in0.0 mm 0.06 in1.5 mm
05:10 AM 44.6°F7.0°C 43.5°F6.4°C 96% 3.0 mph WSW4.8 kmh WSW 10.0 mph16.1 kmh 30.19 in1022.4 mb 0.01 in0.3 mm 0.00 in0.0 mm 0.06 in1.5 mm
05:05 AM 44.6°F7.0°C 43.5°F6.4°C 96% 3.0 mph WSW4.8 kmh WSW 10.0 mph16.1 kmh 30.19 in1022.4 mb 0.01 in0.3 mm 0.00 in0.0 mm 0.06 in1.5 mm
05:00 AM 44.6°F7.0°C 43.5°F6.4°C 96% 3.0 mph WSW4.8 kmh WSW 9.0 mph14.5 kmh 30.19 in1022.4 mb 0.01 in0.3 mm 0.00 in0.0 mm 0.06 in1.5 mm
04:55 AM 44.6°F7.0°C 43.5°F6.4°C 96% 3.0 mph SW4.8 kmh SW 10.0 mph16.1 kmh 30.19 in1022.4 mb 0.01 in0.3 mm 0.00 in0.0 mm 0.06 in1.5 mm
04:50 AM 44.6°F7.0°C 43.5°F6.4°C 96% 3.0 mph SW4.8 kmh SW 10.0 mph16.1 kmh 30.19 in1022.4 mb 0.01 in0.3 mm 0.00 in0.0 mm 0.06 in1.5 mm
04:45 AM 44.7°F7.1°C 43.6°F6.4°C 96% 2.0 mph SW3.2 kmh SW 9.0 mph14.5 kmh 30.19 in1022.4 mb 0.01 in0.3 mm 0.12 in3.0 mm 0.06 in1.5 mm
04:40 AM 44.7°F7.1°C 43.6°F6.4°C 96% 3.0 mph SW4.8 kmh SW 9.0 mph14.5 kmh 30.19 in1022.4 mb 0.00 in0.0 mm 0.00 in0.0 mm 0.05 in1.3 mm
04:35 AM 44.8°F7.1°C 43.7°F6.5°C 96% 3.0 mph WSW4.8 kmh WSW 7.0 mph11.3 kmh 30.19 in1022.4 mb 0.00 in0.0 mm 0.00 in0.0 mm 0.05 in1.3 mm
04:30 AM 44.7°F7.1°C 43.6°F6.4°C 96% 3.0 mph WSW4.8 kmh WSW 9.0 mph14.5 kmh 30.19 in1022.4 mb 0.00 in0.0 mm 0.00 in0.0 mm 0.05 in1.3 mm
04:25 AM 44.8°F7.1°C 43.7°F6.5°C 96% 3.0 mph WSW4.8 kmh WSW 10.0 mph16.1 kmh 30.19 in1022.4 mb 0.00 in0.0 mm 0.00 in0.0 mm 0.05 in1.3 mm
04:20 AM 44.8°F7.1°C 43.7°F6.5°C 96% 3.0 mph WSW4.8 kmh WSW 13.0 mph20.9 kmh 30.19 in1022.4 mb 0.00 in0.0 mm 0.00 in0.0 mm 0.05 in1.3 mm
04:15 AM 44.8°F7.1°C 43.7°F6.5°C 96% 2.0 mph WSW3.2 kmh WSW 13.0 mph20.9 kmh 30.19 in1022.4 mb 0.01 in0.3 mm 0.00 in0.0 mm 0.05 in1.3 mm
04:10 AM 44.8°F7.1°C 43.7°F6.5°C 96% 2.0 mph WSW3.2 kmh WSW 6.0 mph9.7 kmh 30.19 in1022.4 mb 0.01 in0.3 mm 0.00 in0.0 mm 0.05 in1.3 mm
04:05 AM 44.8°F7.1°C 43.7°F6.5°C 96% 2.0 mph WSW3.2 kmh WSW 7.0 mph11.3 kmh 30.19 in1022.4 mb 0.01 in0.3 mm 0.00 in0.0 mm 0.05 in1.3 mm
04:00 AM 44.8°F7.1°C 43.7°F6.5°C 96% 3.0 mph WSW4.8 kmh WSW 7.0 mph11.3 kmh 30.19 in1022.4 mb 0.01 in0.3 mm 0.00 in0.0 mm 0.05 in1.3 mm
03:55 AM 44.8°F7.1°C 43.7°F6.5°C 96% 2.0 mph WSW3.2 kmh WSW 6.0 mph9.7 kmh 30.18 in1022.0 mb 0.01 in0.3 mm 0.00 in0.0 mm 0.05 in1.3 mm
03:50 AM 44.8°F7.1°C 43.5°F6.4°C 95% 2.0 mph SW3.2 kmh SW 6.0 mph9.7 kmh 30.18 in1022.0 mb 0.01 in0.3 mm 0.00 in0.0 mm 0.05 in1.3 mm
03:45 AM 44.8°F7.1°C 43.5°F6.4°C 95% 1.0 mph SW1.6 kmh SW 5.0 mph8.0 kmh 30.18 in1022.0 mb 0.01 in0.3 mm 0.00 in0.0 mm 0.05 in1.3 mm
03:40 AM 44.8°F7.1°C 43.5°F6.4°C 95% 2.0 mph WSW3.2 kmh WSW 6.0 mph9.7 kmh 30.18 in1022.0 mb 0.01 in0.3 mm 0.00 in0.0 mm 0.05 in1.3 mm
03:35 AM 44.8°F7.1°C 43.5°F6.4°C 95% 2.0 mph WSW3.2 kmh WSW 6.0 mph9.7 kmh 30.18 in1022.0 mb 0.02 in0.5 mm 0.00 in0.0 mm 0.05 in1.3 mm
03:30 AM 44.8°F7.1°C 43.5°F6.4°C 95% 1.0 mph WSW1.6 kmh WSW 5.0 mph8.0 kmh 30.18 in1022.0 mb 0.02 in0.5 mm 0.00 in0.0 mm 0.05 in1.3 mm
03:25 AM 44.8°F7.1°C 43.5°F6.4°C 95% 2.0 mph WSW3.2 kmh WSW 7.0 mph11.3 kmh 30.18 in1022.0 mb 0.02 in0.5 mm 0.00 in0.0 mm 0.05 in1.3 mm
03:20 AM 44.9°F7.2°C 43.6°F6.4°C 95% 2.0 mph WSW3.2 kmh WSW 10.0 mph16.1 kmh 30.18 in1022.0 mb 0.02 in0.5 mm 0.12 in3.0 mm 0.05 in1.3 mm
03:15 AM 44.9°F7.2°C 43.6°F6.4°C 95% 2.0 mph WSW3.2 kmh WSW 10.0 mph16.1 kmh 30.18 in1022.0 mb 0.01 in0.3 mm 0.00 in0.0 mm 0.04 in1.0 mm
03:10 AM 44.9°F7.2°C 43.6°F6.4°C 95% 2.0 mph WSW3.2 kmh WSW 6.0 mph9.7 kmh 30.18 in1022.0 mb 0.01 in0.3 mm 0.00 in0.0 mm 0.04 in1.0 mm
03:05 AM 44.9°F7.2°C 43.6°F6.4°C 95% 2.0 mph WSW3.2 kmh WSW 6.0 mph9.7 kmh 30.18 in1022.0 mb 0.01 in0.3 mm 0.00 in0.0 mm 0.04 in1.0 mm
03:00 AM 44.9°F7.2°C 43.6°F6.4°C 95% 2.0 mph WSW3.2 kmh WSW 6.0 mph9.7 kmh 30.18 in1022.0 mb 0.01 in0.3 mm 0.00 in0.0 mm 0.04 in1.0 mm
02:55 AM 44.9°F7.2°C 43.6°F6.4°C 95% 2.0 mph WSW3.2 kmh WSW 6.0 mph9.7 kmh 30.18 in1022.0 mb 0.01 in0.3 mm 0.00 in0.0 mm 0.04 in1.0 mm
02:50 AM 45.0°F7.2°C 43.7°F6.5°C 95% 2.0 mph WSW3.2 kmh WSW 7.0 mph11.3 kmh 30.18 in1022.0 mb 0.02 in0.5 mm 0.00 in0.0 mm 0.04 in1.0 mm
02:45 AM 45.0°F7.2°C 43.7°F6.5°C 95% 2.0 mph WSW3.2 kmh WSW 7.0 mph11.3 kmh 30.18 in1022.0 mb 0.02 in0.5 mm 0.00 in0.0 mm 0.04 in1.0 mm
02:40 AM 45.0°F7.2°C 43.7°F6.5°C 95% 2.0 mph WSW3.2 kmh WSW 6.0 mph9.7 kmh 30.17 in1021.7 mb 0.02 in0.5 mm 0.12 in3.0 mm 0.04 in1.0 mm
02:35 AM 45.0°F7.2°C 43.7°F6.5°C 95% 3.0 mph WSW4.8 kmh WSW 10.0 mph16.1 kmh 30.18 in1022.0 mb 0.01 in0.3 mm 0.00 in0.0 mm 0.03 in0.8 mm
02:30 AM 45.0°F7.2°C 43.7°F6.5°C 95% 3.0 mph WSW4.8 kmh WSW 10.0 mph16.1 kmh 30.17 in1021.7 mb 0.01 in0.3 mm 0.00 in0.0 mm 0.03 in0.8 mm
02:25 AM 45.0°F7.2°C 43.7°F6.5°C 95% 3.0 mph WSW4.8 kmh WSW 13.0 mph20.9 kmh 30.17 in1021.7 mb 0.02 in0.5 mm 0.00 in0.0 mm 0.03 in0.8 mm
02:20 AM 45.0°F7.2°C 43.7°F6.5°C 95% 3.0 mph WSW4.8 kmh WSW 13.0 mph20.9 kmh 30.17 in1021.7 mb 0.02 in0.5 mm 0.00 in0.0 mm 0.03 in0.8 mm
02:15 AM 45.0°F7.2°C 43.7°F6.5°C 95% 3.0 mph WSW4.8 kmh WSW 10.0 mph16.1 kmh 30.17 in1021.7 mb 0.02 in0.5 mm 0.00 in0.0 mm 0.03 in0.8 mm
02:10 AM 45.1°F7.3°C 43.5°F6.4°C 94% 3.0 mph WSW4.8 kmh WSW 11.0 mph17.7 kmh 30.17 in1021.7 mb 0.02 in0.5 mm 0.00 in0.0 mm 0.03 in0.8 mm
02:05 AM 45.1°F7.3°C 43.5°F6.4°C 94% 3.0 mph WSW4.8 kmh WSW 11.0 mph17.7 kmh 30.17 in1021.7 mb 0.02 in0.5 mm 0.00 in0.0 mm 0.03 in0.8 mm
02:00 AM 45.2°F7.3°C 43.6°F6.4°C 94% 3.0 mph SW4.8 kmh SW 9.0 mph14.5 kmh 30.17 in1021.7 mb 0.02 in0.5 mm 0.00 in0.0 mm 0.03 in0.8 mm
01:55 AM 45.2°F7.3°C 43.6°F6.4°C 94% 4.0 mph WSW6.4 kmh WSW 13.0 mph20.9 kmh 30.17 in1021.7 mb 0.02 in0.5 mm 0.12 in3.0 mm 0.03 in0.8 mm
01:50 AM 45.3°F7.4°C 43.7°F6.5°C 94% 4.0 mph WSW6.4 kmh WSW 13.0 mph20.9 kmh 30.17 in1021.7 mb 0.01 in0.3 mm 0.00 in0.0 mm 0.02 in0.5 mm
01:45 AM 45.4°F7.4°C 43.8°F6.6°C 94% 3.0 mph WSW4.8 kmh WSW 9.0 mph14.5 kmh 30.17 in1021.7 mb 0.01 in0.3 mm 0.00 in0.0 mm 0.02 in0.5 mm
01:40 AM 45.4°F7.4°C 43.8°F6.6°C 94% 3.0 mph SW4.8 kmh SW 9.0 mph14.5 kmh 30.17 in1021.7 mb 0.01 in0.3 mm 0.00 in0.0 mm 0.02 in0.5 mm
01:35 AM 45.5°F7.5°C 43.9°F6.6°C 94% 3.0 mph SW4.8 kmh SW 10.0 mph16.1 kmh 30.16 in1021.3 mb 0.01 in0.3 mm 0.00 in0.0 mm 0.02 in0.5 mm
01:30 AM 45.5°F7.5°C 43.9°F6.6°C 94% 3.0 mph WSW4.8 kmh WSW 10.0 mph16.1 kmh 30.16 in1021.3 mb 0.01 in0.3 mm 0.00 in0.0 mm 0.02 in0.5 mm
01:25 AM 45.5°F7.5°C 43.9°F6.6°C 94% 3.0 mph WSW4.8 kmh WSW 9.0 mph14.5 kmh 30.16 in1021.3 mb 0.01 in0.3 mm 0.00 in0.0 mm 0.01 in0.3 mm
01:20 AM 45.6°F7.6°C 43.7°F6.5°C 93% 3.0 mph WSW4.8 kmh WSW 9.0 mph14.5 kmh 30.16 in1021.3 mb 0.01 in0.3 mm 0.00 in0.0 mm 0.01 in0.3 mm
01:15 AM 45.6°F7.6°C 43.7°F6.5°C 93% 3.0 mph WSW4.8 kmh WSW 8.0 mph12.9 kmh 30.16 in1021.3 mb 0.01 in0.3 mm 0.00 in0.0 mm 0.01 in0.3 mm
01:10 AM 45.7°F7.6°C 43.8°F6.6°C 93% 3.0 mph SW4.8 kmh SW 8.0 mph12.9 kmh 30.16 in1021.3 mb 0.01 in0.3 mm 0.00 in0.0 mm 0.01 in0.3 mm
01:05 AM 45.7°F7.6°C 43.8°F6.6°C 93% 2.0 mph SW3.2 kmh SW 8.0 mph12.9 kmh 30.16 in1021.3 mb 0.01 in0.3 mm 0.00 in0.0 mm 0.01 in0.3 mm
01:00 AM 45.8°F7.7°C 43.9°F6.6°C 93% 2.0 mph SW3.2 kmh SW 7.0 mph11.3 kmh 30.16 in1021.3 mb 0.01 in0.3 mm 0.00 in0.0 mm 0.01 in0.3 mm
12:55 AM 45.8°F7.7°C 43.9°F6.6°C 93% 3.0 mph SW4.8 kmh SW 10.0 mph16.1 kmh 30.16 in1021.3 mb 0.01 in0.3 mm 0.00 in0.0 mm 0.01 in0.3 mm
12:50 AM 45.9°F7.7°C 44.0°F6.7°C 93% 3.0 mph SW4.8 kmh SW 10.0 mph16.1 kmh 30.16 in1021.3 mb 0.01 in0.3 mm 0.00 in0.0 mm 0.01 in0.3 mm
12:45 AM 45.9°F7.7°C 44.0°F6.7°C 93% 2.0 mph WSW3.2 kmh WSW 8.0 mph12.9 kmh 30.16 in1021.3 mb 0.01 in0.3 mm 0.00 in0.0 mm 0.01 in0.3 mm
12:40 AM 46.0°F7.8°C 44.1°F6.7°C 93% 2.0 mph WSW3.2 kmh WSW 8.0 mph12.9 kmh 30.15 in1021.0 mb 0.01 in0.3 mm 0.00 in0.0 mm 0.01 in0.3 mm
12:35 AM 46.0°F7.8°C 44.1°F6.7°C 93% 3.0 mph WSW4.8 kmh WSW 9.0 mph14.5 kmh 30.15 in1021.0 mb 0.01 in0.3 mm 0.00 in0.0 mm 0.01 in0.3 mm
12:30 AM 46.0°F7.8°C 43.8°F6.6°C 92% 2.0 mph WSW3.2 kmh WSW 9.0 mph14.5 kmh 30.15 in1021.0 mb 0.01 in0.3 mm 0.12 in3.0 mm 0.01 in0.3 mm
12:25 AM 46.1°F7.8°C 43.9°F6.6°C 92% 3.0 mph WSW4.8 kmh WSW 10.0 mph16.1 kmh 30.15 in1021.0 mb 0.00 in0.0 mm 0.00 in0.0 mm 0.00 in0.0 mm
12:20 AM 46.1°F7.8°C 43.9°F6.6°C 92% 2.0 mph WSW3.2 kmh WSW 10.0 mph16.1 kmh 30.15 in1021.0 mb 0.00 in0.0 mm 0.00 in0.0 mm 0.00 in0.0 mm
12:15 AM 46.2°F7.9°C 44.0°F6.7°C 92% 2.0 mph WSW3.2 kmh WSW 7.0 mph11.3 kmh 30.15 in1021.0 mb 0.00 in0.0 mm 0.00 in0.0 mm 0.00 in0.0 mm
12:10 AM 46.3°F7.9°C 44.1°F6.7°C 92% 3.0 mph WSW4.8 kmh WSW 10.0 mph16.1 kmh 30.15 in1021.0 mb 0.00 in0.0 mm 0.00 in0.0 mm 0.00 in0.0 mm
12:05 AM 46.3°F7.9°C 44.1°F6.7°C 92% 4.0 mph WSW6.4 kmh WSW 10.0 mph16.1 kmh 30.15 in1021.0 mb 0.00 in0.0 mm 0.00 in0.0 mm 0.00 in0.0 mm
12:00 AM 46.4°F8.0°C 43.9°F6.6°C 91% 3.0 mph SW4.8 kmh SW 9.0 mph14.5 kmh 30.15 in1021.0 mb 0.00 in0.0 mm 0.00 in0.0 mm 0.00 in0.0 mm